Bloomington Hills, Utah
Current Conditions -  °F | °C
As of 3:15 PM on Thursday 18 Dec 2014 (Local Time) from KSGU Reporting Station
Clear Clear  
Wind Chill: 52°   Ceiling: Unl
Heat Index: 52°   Visibility: 10mi
Dew Point: 36°   Wind: 5mph
Humidity: 54%   Direction: 270°W
Pressure: 30.15"   Gusts: NA
Location:  37.0469°N, 113.607°W
Report Text: KSGU 182215Z AUTO 27004KT 10SM CLR 11/02 A3015 RMK AO1
Loading
Personal Weather Stations






























Interactive Weather Map New forecast layout! Learn more

10-Day Weather Forecast

Advertisements
Track Severe Weather on mobile